<?xml version='1.0' encoding='UTF-8'?>
<gpx xmlns="http://www.topografix.com/GPX/1/1" creator="www.balnam.be" version="1.1" xmlns:xsi="http://www.w3.org/2001/XMLSchema-instance" xsi:schemaLocation="http://www.topografix.com/GPX/1/1 http://www.topografix.com/GPX/1/1/gpx.xsd">
<trk>
<name>lwzmh10</name>
<cmt>r</cmt>
<desc>Moha Chemin n°10 Rue du Madot</desc>
<link href="https://chemins.be/moha/chemin/10"/><trkseg>
<trkpt lat="50.553014" lon="5.176897"><time>2026-05-03T06:40:43Z</time></trkpt>
<trkpt lat="50.552160" lon="5.172987"><time>2026-05-03T06:50:43Z</time></trkpt>
<trkpt lat="50.551850" lon="5.170950"><time>2026-05-03T07:00:43Z</time></trkpt>
</trkseg></trk>
<trk>
<name>lwzmh10</name>
<cmt>v</cmt>
<desc>Moha Chemin n°10 Rue du Madot</desc>
<link href="https://chemins.be/moha/chemin/10"/><trkseg>
<trkpt lat="50.551850" lon="5.170950"><time>2026-05-03T07:00:43Z</time></trkpt>
<trkpt lat="50.551650" lon="5.170691"><time>2026-05-03T07:10:43Z</time></trkpt>
<trkpt lat="50.551679" lon="5.167095"><time>2026-05-03T07:20:43Z</time></trkpt>
<trkpt lat="50.550891" lon="5.165360"><time>2026-05-03T07:30:43Z</time></trkpt>
<trkpt lat="50.550962" lon="5.164091"><time>2026-05-03T07:40:43Z</time></trkpt>
</trkseg>
</trk>
<trk>
<name>lwzmh11</name>
<cmt>v</cmt>
<desc>Moha Chemin n°11 </desc>
<link href="https://chemins.be/moha/chemin/11"/><trkseg>
<trkpt lat="50.550928" lon="5.189688"><time>2026-05-03T06:40:43Z</time></trkpt>
<trkpt lat="50.551381" lon="5.190472"><time>2026-05-03T06:50:43Z</time></trkpt>
<trkpt lat="50.551666" lon="5.190887"><time>2026-05-03T07:00:43Z</time></trkpt>
<trkpt lat="50.551666" lon="5.190971"><time>2026-05-03T07:10:43Z</time></trkpt>
</trkseg>
</trk>
<trk>
<name>lwzmh13</name>
<cmt>v</cmt>
<desc>Moha Chemin n°13 </desc>
<link href="https://chemins.be/moha/chemin/13"/><trkseg>
<trkpt lat="50.548765" lon="5.184630"><time>2026-05-03T06:40:43Z</time></trkpt>
<trkpt lat="50.548230" lon="5.184833"><time>2026-05-03T06:50:43Z</time></trkpt>
</trkseg>
</trk>
<trk>
<name>lwzmh15</name>
<cmt>q</cmt>
<desc>Moha Chemin n°15 Rue du Madot</desc>
<link href="https://chemins.be/moha/chemin/15"/><trkseg>
<trkpt lat="50.552163" lon="5.180864"><time>2026-05-03T06:40:43Z</time></trkpt>
<trkpt lat="50.552634" lon="5.179589"><time>2026-05-03T06:50:43Z</time></trkpt>
<trkpt lat="50.552884" lon="5.179326"><time>2026-05-03T07:00:43Z</time></trkpt>
</trkseg></trk>
<trk>
<name>lwzmh15</name>
<cmt>r</cmt>
<desc>Moha Chemin n°15 Rue du Madot</desc>
<link href="https://chemins.be/moha/chemin/15"/><trkseg>
<trkpt lat="50.552884" lon="5.179326"><time>2026-05-03T07:00:43Z</time></trkpt>
<trkpt lat="50.552979" lon="5.179108"><time>2026-05-03T07:10:43Z</time></trkpt>
</trkseg></trk>
<trk>
<name>lwzmh15</name>
<cmt>v</cmt>
<desc>Moha Chemin n°15 Rue du Madot</desc>
<link href="https://chemins.be/moha/chemin/15"/><trkseg>
<trkpt lat="50.552979" lon="5.179108"><time>2026-05-03T07:10:43Z</time></trkpt>
<trkpt lat="50.553122" lon="5.178978"><time>2026-05-03T07:20:43Z</time></trkpt>
<trkpt lat="50.553341" lon="5.178830"><time>2026-05-03T07:30:43Z</time></trkpt>
<trkpt lat="50.553490" lon="5.178422"><time>2026-05-03T07:40:43Z</time></trkpt>
</trkseg></trk>
<trk>
<name>lwzmh15</name>
<cmt>q</cmt>
<desc>Moha Chemin n°15 Rue du Madot</desc>
<link href="https://chemins.be/moha/chemin/15"/><trkseg>
<trkpt lat="50.553490" lon="5.178422"><time>2026-05-03T07:40:43Z</time></trkpt>
<trkpt lat="50.553575" lon="5.178319"><time>2026-05-03T07:50:43Z</time></trkpt>
<trkpt lat="50.553968" lon="5.178113"><time>2026-05-03T08:00:43Z</time></trkpt>
<trkpt lat="50.554208" lon="5.176661"><time>2026-05-03T08:10:43Z</time></trkpt>
<trkpt lat="50.554352" lon="5.176251"><time>2026-05-03T08:20:43Z</time></trkpt>
</trkseg></trk>
<trk>
<name>lwzmh15</name>
<cmt>s</cmt>
<desc>Moha Chemin n°15 Rue du Madot</desc>
<link href="https://chemins.be/moha/chemin/15"/><trkseg>
<trkpt lat="50.554352" lon="5.176251"><time>2026-05-03T08:20:43Z</time></trkpt>
<trkpt lat="50.555321" lon="5.173503"><time>2026-05-03T08:30:43Z</time></trkpt>
<trkpt lat="50.555610" lon="5.171237"><time>2026-05-03T08:40:43Z</time></trkpt>
<trkpt lat="50.556019" lon="5.170241"><time>2026-05-03T08:50:43Z</time></trkpt>
</trkseg></trk>
<trk>
<name>lwzmh15</name>
<cmt>q</cmt>
<desc>Moha Chemin n°15 Rue du Madot</desc>
<link href="https://chemins.be/moha/chemin/15"/><trkseg>
<trkpt lat="50.556019" lon="5.170241"><time>2026-05-03T08:50:43Z</time></trkpt>
<trkpt lat="50.556597" lon="5.169151"><time>2026-05-03T09:00:43Z</time></trkpt>
<trkpt lat="50.558123" lon="5.167855"><time>2026-05-03T09:10:43Z</time></trkpt>
</trkseg>
</trk>
<trk>
<name>lwzmh16</name>
<cmt>q</cmt>
<desc>Moha Chemin n°16 </desc>
<link href="https://chemins.be/moha/chemin/16"/><trkseg>
<trkpt lat="50.551634" lon="5.168979"><time>2026-05-03T06:40:43Z</time></trkpt>
<trkpt lat="50.551991" lon="5.168877"><time>2026-05-03T06:50:43Z</time></trkpt>
</trkseg></trk>
<trk>
<name>lwzmh16</name>
<cmt>s</cmt>
<desc>Moha Chemin n°16 </desc>
<link href="https://chemins.be/moha/chemin/16"/><trkseg>
<trkpt lat="50.551991" lon="5.168877"><time>2026-05-03T06:50:43Z</time></trkpt>
<trkpt lat="50.552588" lon="5.168705"><time>2026-05-03T07:00:43Z</time></trkpt>
<trkpt lat="50.553297" lon="5.167804"><time>2026-05-03T07:10:43Z</time></trkpt>
</trkseg></trk>
<trk>
<name>lwzmh16</name>
<cmt>q</cmt>
<desc>Moha Chemin n°16 </desc>
<link href="https://chemins.be/moha/chemin/16"/><trkseg>
<trkpt lat="50.553297" lon="5.167804"><time>2026-05-03T07:10:43Z</time></trkpt>
<trkpt lat="50.556208" lon="5.166560"><time>2026-05-03T07:20:43Z</time></trkpt>
</trkseg></trk>
<trk>
<name>lwzmh16</name>
<cmt>v</cmt>
<desc>Moha Chemin n°16 </desc>
<link href="https://chemins.be/moha/chemin/16"/><trkseg>
<trkpt lat="50.556208" lon="5.166560"><time>2026-05-03T07:20:43Z</time></trkpt>
<trkpt lat="50.557053" lon="5.166503"><time>2026-05-03T07:30:43Z</time></trkpt>
<trkpt lat="50.557780" lon="5.165960"><time>2026-05-03T07:40:43Z</time></trkpt>
</trkseg>
</trk>
<trk>
<name>lwzmh17</name>
<cmt>r</cmt>
<desc>Moha Chemin n°17 </desc>
<link href="https://chemins.be/moha/chemin/17"/><trkseg>
<trkpt lat="50.548387" lon="5.169903"><time>2026-05-03T06:40:43Z</time></trkpt>
<trkpt lat="50.548336" lon="5.169915"><time>2026-05-03T06:50:43Z</time></trkpt>
<trkpt lat="50.548804" lon="5.169548"><time>2026-05-03T07:00:43Z</time></trkpt>
</trkseg></trk>
<trk>
<name>lwzmh17</name>
<cmt>v</cmt>
<desc>Moha Chemin n°17 </desc>
<link href="https://chemins.be/moha/chemin/17"/><trkseg>
<trkpt lat="50.548804" lon="5.169548"><time>2026-05-03T07:00:43Z</time></trkpt>
<trkpt lat="50.549110" lon="5.169436"><time>2026-05-03T07:10:43Z</time></trkpt>
<trkpt lat="50.549232" lon="5.169488"><time>2026-05-03T07:20:43Z</time></trkpt>
</trkseg></trk>
<trk>
<name>lwzmh17</name>
<cmt>s</cmt>
<desc>Moha Chemin n°17 </desc>
<link href="https://chemins.be/moha/chemin/17"/><trkseg>
<trkpt lat="50.549232" lon="5.169488"><time>2026-05-03T07:20:43Z</time></trkpt>
<trkpt lat="50.549631" lon="5.169417"><time>2026-05-03T07:30:43Z</time></trkpt>
<trkpt lat="50.549813" lon="5.169109"><time>2026-05-03T07:40:43Z</time></trkpt>
<trkpt lat="50.549782" lon="5.168375"><time>2026-05-03T07:50:43Z</time></trkpt>
<trkpt lat="50.549717" lon="5.167428"><time>2026-05-03T08:00:43Z</time></trkpt>
<trkpt lat="50.550062" lon="5.165543"><time>2026-05-03T08:10:43Z</time></trkpt>
<trkpt lat="50.550079" lon="5.164457"><time>2026-05-03T08:20:43Z</time></trkpt>
<trkpt lat="50.550434" lon="5.163842"><time>2026-05-03T08:30:43Z</time></trkpt>
</trkseg>
</trk>
<trk>
<name>lwzmh18</name>
<cmt>v</cmt>
<desc>Moha Chemin n°18 </desc>
<link href="https://chemins.be/moha/chemin/18"/><trkseg>
<trkpt lat="50.547347" lon="5.185477"><time>2026-05-03T06:40:43Z</time></trkpt>
<trkpt lat="50.547316" lon="5.185246"><time>2026-05-03T06:50:43Z</time></trkpt>
</trkseg></trk>
<trk>
<name>lwzmh18</name>
<cmt>q</cmt>
<desc>Moha Chemin n°18 </desc>
<link href="https://chemins.be/moha/chemin/18"/><trkseg>
<trkpt lat="50.547316" lon="5.185246"><time>2026-05-03T06:50:43Z</time></trkpt>
<trkpt lat="50.547252" lon="5.184576"><time>2026-05-03T07:00:43Z</time></trkpt>
<trkpt lat="50.546754" lon="5.183074"><time>2026-05-03T07:10:43Z</time></trkpt>
</trkseg>
</trk>
<trk>
<name>lwzmh20</name>
<cmt>s</cmt>
<desc>Moha Chemin n°20 Rue Alphonse Nicolas</desc>
<link href="https://chemins.be/moha/chemin/20"/><trkseg>
<trkpt lat="50.552975" lon="5.192645"><time>2026-05-03T06:40:43Z</time></trkpt>
<trkpt lat="50.552263" lon="5.192901"><time>2026-05-03T06:50:43Z</time></trkpt>
</trkseg></trk>
<trk>
<name>lwzmh20</name>
<cmt>v</cmt>
<desc>Moha Chemin n°20 Rue Alphonse Nicolas</desc>
<link href="https://chemins.be/moha/chemin/20"/><trkseg>
<trkpt lat="50.552263" lon="5.192901"><time>2026-05-03T06:50:43Z</time></trkpt>
<trkpt lat="50.551930" lon="5.193050"><time>2026-05-03T07:00:43Z</time></trkpt>
</trkseg></trk>
<trk>
<name>lwzmh20</name>
<cmt>s</cmt>
<desc>Moha Chemin n°20 Rue Alphonse Nicolas</desc>
<link href="https://chemins.be/moha/chemin/20"/><trkseg>
<trkpt lat="50.551930" lon="5.193050"><time>2026-05-03T07:00:43Z</time></trkpt>
<trkpt lat="50.551083" lon="5.193261"><time>2026-05-03T07:10:43Z</time></trkpt>
</trkseg></trk>
<trk>
<name>lwzmh20</name>
<cmt>r</cmt>
<desc>Moha Chemin n°20 Rue Alphonse Nicolas</desc>
<link href="https://chemins.be/moha/chemin/20"/><trkseg>
<trkpt lat="50.551083" lon="5.193261"><time>2026-05-03T07:10:43Z</time></trkpt>
<trkpt lat="50.550153" lon="5.192433"><time>2026-05-03T07:20:43Z</time></trkpt>
</trkseg></trk>
<trk>
<name>lwzmh20</name>
<cmt>v</cmt>
<desc>Moha Chemin n°20 Rue Alphonse Nicolas</desc>
<link href="https://chemins.be/moha/chemin/20"/><trkseg>
<trkpt lat="50.550153" lon="5.192433"><time>2026-05-03T07:20:43Z</time></trkpt>
<trkpt lat="50.549632" lon="5.192407"><time>2026-05-03T07:30:43Z</time></trkpt>
</trkseg></trk>
<trk>
<name>lwzmh20</name>
<cmt>r</cmt>
<desc>Moha Chemin n°20 Rue Alphonse Nicolas</desc>
<link href="https://chemins.be/moha/chemin/20"/><trkseg>
<trkpt lat="50.549632" lon="5.192407"><time>2026-05-03T07:30:43Z</time></trkpt>
<trkpt lat="50.548772" lon="5.192064"><time>2026-05-03T07:40:43Z</time></trkpt>
</trkseg>
</trk>
<trk>
<name>lwzmh22</name>
<cmt>r</cmt>
<desc>Moha Chemin n°22 Rue des Communes</desc>
<link href="https://chemins.be/moha/chemin/22"/><trkseg>
<trkpt lat="50.556225" lon="5.185784"><time>2026-05-03T06:40:43Z</time></trkpt>
<trkpt lat="50.557169" lon="5.185807"><time>2026-05-03T06:50:43Z</time></trkpt>
<trkpt lat="50.557169" lon="5.185807"><time>2026-05-03T07:00:43Z</time></trkpt>
<trkpt lat="50.557499" lon="5.185898"><time>2026-05-03T07:10:43Z</time></trkpt>
</trkseg></trk>
<trk>
<name>lwzmh22</name>
<cmt>v</cmt>
<desc>Moha Chemin n°22 Rue des Communes</desc>
<link href="https://chemins.be/moha/chemin/22"/><trkseg>
<trkpt lat="50.557499" lon="5.185898"><time>2026-05-03T07:10:43Z</time></trkpt>
<trkpt lat="50.557795" lon="5.186164"><time>2026-05-03T07:20:43Z</time></trkpt>
</trkseg></trk>
<trk>
<name>lwzmh22</name>
<cmt>s</cmt>
<desc>Moha Chemin n°22 Rue des Communes</desc>
<link href="https://chemins.be/moha/chemin/22"/><trkseg>
<trkpt lat="50.557795" lon="5.186164"><time>2026-05-03T07:20:43Z</time></trkpt>
<trkpt lat="50.557795" lon="5.186164"><time>2026-05-03T07:30:43Z</time></trkpt>
<trkpt lat="50.560855" lon="5.187574"><time>2026-05-03T07:40:43Z</time></trkpt>
<trkpt lat="50.561435" lon="5.188054"><time>2026-05-03T07:50:43Z</time></trkpt>
</trkseg>
</trk>
<trk>
<name>lwzmh24</name>
<cmt>v</cmt>
<desc>Moha Chemin n°24 </desc>
<link href="https://chemins.be/moha/chemin/24"/><trkseg>
<trkpt lat="50.556449" lon="5.182566"><time>2026-05-03T06:40:43Z</time></trkpt>
<trkpt lat="50.557458" lon="5.181665"><time>2026-05-03T06:50:43Z</time></trkpt>
</trkseg>
</trk>
<trk>
<name>lwzmh25</name>
<cmt>v</cmt>
<desc>Moha Chemin n°25 Thier Wathot</desc>
<link href="https://chemins.be/moha/chemin/25"/><trkseg>
<trkpt lat="50.550716" lon="5.187935"><time>2026-05-03T06:40:43Z</time></trkpt>
<trkpt lat="50.551232" lon="5.187876"><time>2026-05-03T06:50:43Z</time></trkpt>
</trkseg>
</trk>
<trk>
<name>lwzmh27</name>
<cmt>r</cmt>
<desc>Moha Chemin n°27 Rue Lourisse</desc>
<link href="https://chemins.be/moha/chemin/27"/><trkseg>
<trkpt lat="50.552773" lon="5.194519"><time>2026-05-03T06:40:43Z</time></trkpt>
<trkpt lat="50.552456" lon="5.193638"><time>2026-05-03T06:50:43Z</time></trkpt>
</trkseg></trk>
<trk>
<name>lwzmh27</name>
<cmt>v</cmt>
<desc>Moha Chemin n°27 Rue Lourisse</desc>
<link href="https://chemins.be/moha/chemin/27"/><trkseg>
<trkpt lat="50.552456" lon="5.193638"><time>2026-05-03T06:50:43Z</time></trkpt>
<trkpt lat="50.552218" lon="5.192900"><time>2026-05-03T07:00:43Z</time></trkpt>
</trkseg>
</trk>
<trk>
<name>lwzmh29</name>
<cmt>v</cmt>
<desc>Moha Chemin n°29 </desc>
<link href="https://chemins.be/moha/chemin/29"/><trkseg>
<trkpt lat="50.549786" lon="5.179807"><time>2026-05-03T06:40:43Z</time></trkpt>
<trkpt lat="50.549698" lon="5.179466"><time>2026-05-03T06:50:43Z</time></trkpt>
<trkpt lat="50.549653" lon="5.178412"><time>2026-05-03T07:00:43Z</time></trkpt>
<trkpt lat="50.549780" lon="5.178680"><time>2026-05-03T07:10:43Z</time></trkpt>
<trkpt lat="50.550166" lon="5.178428"><time>2026-05-03T07:20:43Z</time></trkpt>
<trkpt lat="50.550173" lon="5.178034"><time>2026-05-03T07:30:43Z</time></trkpt>
<trkpt lat="50.550245" lon="5.177766"><time>2026-05-03T07:40:43Z</time></trkpt>
<trkpt lat="50.550212" lon="5.177457"><time>2026-05-03T07:50:43Z</time></trkpt>
</trkseg>
</trk>
<trk>
<name>lwzmh3</name>
<cmt>v</cmt>
<desc>Moha Chemin n°3 Rue Naxhelet / Rue du Madot</desc>
<link href="https://chemins.be/moha/chemin/3"/><trkseg>
<trkpt lat="50.543287" lon="5.198473"><time>2026-05-03T06:40:43Z</time></trkpt>
<trkpt lat="50.545720" lon="5.191418"><time>2026-05-03T06:50:43Z</time></trkpt>
</trkseg></trk>
<trk>
<name>lwzmh3</name>
<cmt>r</cmt>
<desc>Moha Chemin n°3 Rue Naxhelet / Rue du Madot</desc>
<link href="https://chemins.be/moha/chemin/3"/><trkseg>
<trkpt lat="50.545720" lon="5.191418"><time>2026-05-03T06:50:43Z</time></trkpt>
<trkpt lat="50.547082" lon="5.189321"><time>2026-05-03T07:00:43Z</time></trkpt>
<trkpt lat="50.547155" lon="5.188841"><time>2026-05-03T07:10:43Z</time></trkpt>
<trkpt lat="50.546998" lon="5.188487"><time>2026-05-03T07:20:43Z</time></trkpt>
<trkpt lat="50.546917" lon="5.188358"><time>2026-05-03T07:30:43Z</time></trkpt>
<trkpt lat="50.547026" lon="5.188173"><time>2026-05-03T07:40:43Z</time></trkpt>
<trkpt lat="50.547686" lon="5.188014"><time>2026-05-03T07:50:43Z</time></trkpt>
<trkpt lat="50.547830" lon="5.187913"><time>2026-05-03T08:00:43Z</time></trkpt>
<trkpt lat="50.548041" lon="5.187092"><time>2026-05-03T08:10:43Z</time></trkpt>
<trkpt lat="50.548212" lon="5.186148"><time>2026-05-03T08:20:43Z</time></trkpt>
<trkpt lat="50.548811" lon="5.184528"><time>2026-05-03T08:30:43Z</time></trkpt>
<trkpt lat="50.549718" lon="5.183465"><time>2026-05-03T08:40:43Z</time></trkpt>
<trkpt lat="50.550678" lon="5.183066"><time>2026-05-03T08:50:43Z</time></trkpt>
<trkpt lat="50.551186" lon="5.182984"><time>2026-05-03T09:00:43Z</time></trkpt>
<trkpt lat="50.552087" lon="5.182229"><time>2026-05-03T09:10:43Z</time></trkpt>
</trkseg></trk>
<trk>
<name>lwzmh3</name>
<cmt>v</cmt>
<desc>Moha Chemin n°3 Rue Naxhelet / Rue du Madot</desc>
<link href="https://chemins.be/moha/chemin/3"/><trkseg>
<trkpt lat="50.552087" lon="5.182229"><time>2026-05-03T09:10:43Z</time></trkpt>
<trkpt lat="50.552738" lon="5.181634"><time>2026-05-03T09:20:43Z</time></trkpt>
<trkpt lat="50.553873" lon="5.180087"><time>2026-05-03T09:30:43Z</time></trkpt>
<trkpt lat="50.554484" lon="5.178855"><time>2026-05-03T09:40:43Z</time></trkpt>
<trkpt lat="50.556198" lon="5.178010"><time>2026-05-03T09:50:43Z</time></trkpt>
<trkpt lat="50.557033" lon="5.176853"><time>2026-05-03T10:00:43Z</time></trkpt>
</trkseg></trk>
<trk>
<name>lwzmh3</name>
<cmt>q</cmt>
<desc>Moha Chemin n°3 Rue Naxhelet / Rue du Madot</desc>
<link href="https://chemins.be/moha/chemin/3"/><trkseg>
<trkpt lat="50.557033" lon="5.176853"><time>2026-05-03T10:00:43Z</time></trkpt>
<trkpt lat="50.557192" lon="5.175983"><time>2026-05-03T10:10:43Z</time></trkpt>
<trkpt lat="50.556673" lon="5.175020"><time>2026-05-03T10:20:43Z</time></trkpt>
<trkpt lat="50.556646" lon="5.173808"><time>2026-05-03T10:30:43Z</time></trkpt>
<trkpt lat="50.557259" lon="5.172542"><time>2026-05-03T10:40:43Z</time></trkpt>
<trkpt lat="50.558441" lon="5.173722"><time>2026-05-03T10:50:43Z</time></trkpt>
<trkpt lat="50.558889" lon="5.175257"><time>2026-05-03T11:00:43Z</time></trkpt>
<trkpt lat="50.558962" lon="5.175693"><time>2026-05-03T11:10:43Z</time></trkpt>
<trkpt lat="50.559075" lon="5.176094"><time>2026-05-03T11:20:43Z</time></trkpt>
</trkseg></trk>
<trk>
<name>lwzmh3</name>
<cmt>v</cmt>
<desc>Moha Chemin n°3 Rue Naxhelet / Rue du Madot</desc>
<link href="https://chemins.be/moha/chemin/3"/><trkseg>
<trkpt lat="50.559075" lon="5.176094"><time>2026-05-03T11:20:43Z</time></trkpt>
<trkpt lat="50.559429" lon="5.176188"><time>2026-05-03T11:30:43Z</time></trkpt>
</trkseg>
</trk>
<trk>
<name>lwzmh30</name>
<cmt>d</cmt>
<desc>Moha Chemin n°30 </desc>
<link href="https://chemins.be/moha/chemin/30"/><trkseg>
<trkpt lat="50.550189" lon="5.178101"><time>2026-05-03T06:40:43Z</time></trkpt>
<trkpt lat="50.550567" lon="5.179324"><time>2026-05-03T06:50:43Z</time></trkpt>
</trkseg>
</trk>
<trk>
<name>lwzmh31</name>
<cmt>r</cmt>
<desc>Moha Chemin n°31 Rue des Bruyères dit Les Trous</desc>
<link href="https://chemins.be/moha/chemin/31"/><trkseg>
<trkpt lat="50.554367" lon="5.194151"><time>2026-05-03T06:40:43Z</time></trkpt>
<trkpt lat="50.554494" lon="5.195353"><time>2026-05-03T06:50:43Z</time></trkpt>
<trkpt lat="50.554278" lon="5.195377"><time>2026-05-03T07:00:43Z</time></trkpt>
</trkseg>
</trk>
<trk>
<name>lwzmh33</name>
<cmt>q</cmt>
<desc>Moha Chemin n°33 </desc>
<link href="https://chemins.be/moha/chemin/33"/><trkseg>
<trkpt lat="50.545540" lon="5.183294"><time>2026-05-03T06:40:43Z</time></trkpt>
<trkpt lat="50.545129" lon="5.184061"><time>2026-05-03T06:50:43Z</time></trkpt>
<trkpt lat="50.544646" lon="5.184542"><time>2026-05-03T07:00:43Z</time></trkpt>
</trkseg>
</trk>
<trk>
<name>lwzmh34</name>
<cmt>q</cmt>
<desc>Moha Chemin n°34 </desc>
<link href="https://chemins.be/moha/chemin/34"/><trkseg>
<trkpt lat="50.543997" lon="5.183906"><time>2026-05-03T06:40:43Z</time></trkpt>
<trkpt lat="50.544209" lon="5.183572"><time>2026-05-03T06:50:43Z</time></trkpt>
<trkpt lat="50.544932" lon="5.184188"><time>2026-05-03T07:00:43Z</time></trkpt>
</trkseg>
</trk>
<trk>
<name>lwzmh35</name>
<cmt>r</cmt>
<desc>Moha Sentier n°35 Rue du Madot</desc>
<link href="https://chemins.be/moha/sentier/35"/><trkseg>
<trkpt lat="50.552440" lon="5.181784"><time>2026-05-03T06:40:43Z</time></trkpt>
<trkpt lat="50.552425" lon="5.181374"><time>2026-05-03T06:50:43Z</time></trkpt>
<trkpt lat="50.552493" lon="5.180755"><time>2026-05-03T07:00:43Z</time></trkpt>
<trkpt lat="50.552759" lon="5.179927"><time>2026-05-03T07:10:43Z</time></trkpt>
<trkpt lat="50.552798" lon="5.179447"><time>2026-05-03T07:20:43Z</time></trkpt>
</trkseg>
</trk>
<trk>
<name>lwzmh36</name>
<cmt>q</cmt>
<desc>Moha Chemin n°36 </desc>
<link href="https://chemins.be/moha/chemin/36"/><trkseg>
<trkpt lat="50.553450" lon="5.178550"><time>2026-05-03T06:40:43Z</time></trkpt>
<trkpt lat="50.553821" lon="5.176738"><time>2026-05-03T06:50:43Z</time></trkpt>
<trkpt lat="50.553357" lon="5.173752"><time>2026-05-03T07:00:43Z</time></trkpt>
</trkseg></trk>
<trk>
<name>lwzmh36</name>
<cmt>s</cmt>
<desc>Moha Chemin n°36 </desc>
<link href="https://chemins.be/moha/chemin/36"/><trkseg>
<trkpt lat="50.553357" lon="5.173752"><time>2026-05-03T07:00:43Z</time></trkpt>
<trkpt lat="50.552954" lon="5.169752"><time>2026-05-03T07:10:43Z</time></trkpt>
<trkpt lat="50.552447" lon="5.168748"><time>2026-05-03T07:20:43Z</time></trkpt>
</trkseg>
</trk>
<trk>
<name>lwzmh37</name>
<cmt>d</cmt>
<desc>Moha Sentier n°37 </desc>
<link href="https://chemins.be/moha/sentier/37"/><trkseg>
<trkpt lat="50.548699" lon="5.176795"><time>2026-05-03T06:40:43Z</time></trkpt>
<trkpt lat="50.547993" lon="5.177298"><time>2026-05-03T06:50:43Z</time></trkpt>
<trkpt lat="50.547134" lon="5.182003"><time>2026-05-03T07:00:43Z</time></trkpt>
<trkpt lat="50.546686" lon="5.183068"><time>2026-05-03T07:10:43Z</time></trkpt>
</trkseg>
</trk>
<trk>
<name>lwzmh38</name>
<cmt>q</cmt>
<desc>Moha Sentier n°38 </desc>
<link href="https://chemins.be/moha/sentier/38"/><trkseg>
<trkpt lat="50.543782" lon="5.172838"><time>2026-05-03T06:40:43Z</time></trkpt>
<trkpt lat="50.542135" lon="5.169159"><time>2026-05-03T06:50:43Z</time></trkpt>
<trkpt lat="50.541559" lon="5.166608"><time>2026-05-03T07:00:43Z</time></trkpt>
<trkpt lat="50.541468" lon="5.165050"><time>2026-05-03T07:10:43Z</time></trkpt>
<trkpt lat="50.540898" lon="5.163898"><time>2026-05-03T07:20:43Z</time></trkpt>
</trkseg>
</trk>
<trk>
<name>lwzmh39</name>
<cmt>v</cmt>
<desc>Moha Sentier n°39 </desc>
<link href="https://chemins.be/moha/sentier/39"/><trkseg>
<trkpt lat="50.550619" lon="5.183583"><time>2026-05-03T06:40:43Z</time></trkpt>
<trkpt lat="50.550322" lon="5.184053"><time>2026-05-03T06:50:43Z</time></trkpt>
<trkpt lat="50.550368" lon="5.184297"><time>2026-05-03T07:00:43Z</time></trkpt>
<trkpt lat="50.550138" lon="5.185347"><time>2026-05-03T07:10:43Z</time></trkpt>
<trkpt lat="50.549815" lon="5.186082"><time>2026-05-03T07:20:43Z</time></trkpt>
<trkpt lat="50.549518" lon="5.186847"><time>2026-05-03T07:30:43Z</time></trkpt>
<trkpt lat="50.549375" lon="5.187307"><time>2026-05-03T07:40:43Z</time></trkpt>
<trkpt lat="50.549163" lon="5.187832"><time>2026-05-03T07:50:43Z</time></trkpt>
<trkpt lat="50.549088" lon="5.187847"><time>2026-05-03T08:00:43Z</time></trkpt>
<trkpt lat="50.548831" lon="5.188616"><time>2026-05-03T08:10:43Z</time></trkpt>
<trkpt lat="50.548731" lon="5.188888"><time>2026-05-03T08:20:43Z</time></trkpt>
<trkpt lat="50.547974" lon="5.189129"><time>2026-05-03T08:30:43Z</time></trkpt>
</trkseg></trk>
<trk>
<name>lwzmh39</name>
<cmt>q</cmt>
<desc>Moha Sentier n°39 </desc>
<link href="https://chemins.be/moha/sentier/39"/><trkseg>
<trkpt lat="50.547974" lon="5.189129"><time>2026-05-03T08:30:43Z</time></trkpt>
<trkpt lat="50.547578" lon="5.189207"><time>2026-05-03T08:40:43Z</time></trkpt>
<trkpt lat="50.547109" lon="5.189495"><time>2026-05-03T08:50:43Z</time></trkpt>
</trkseg>
</trk>
<trk>
<name>lwzmh4</name>
<cmt>r</cmt>
<desc>Moha Chemin n°4 Rue Saint Sauveur</desc>
<link href="https://chemins.be/moha/chemin/4"/><trkseg>
<trkpt lat="50.541633" lon="5.177986"><time>2026-05-03T06:40:43Z</time></trkpt>
<trkpt lat="50.540390" lon="5.175764"><time>2026-05-03T06:50:43Z</time></trkpt>
</trkseg></trk>
<trk>
<name>lwzmh4</name>
<cmt>v</cmt>
<desc>Moha Chemin n°4 Rue Saint Sauveur</desc>
<link href="https://chemins.be/moha/chemin/4"/><trkseg>
<trkpt lat="50.540390" lon="5.175764"><time>2026-05-03T06:50:43Z</time></trkpt>
<trkpt lat="50.538810" lon="5.174129"><time>2026-05-03T07:00:43Z</time></trkpt>
<trkpt lat="50.536696" lon="5.171624"><time>2026-05-03T07:10:43Z</time></trkpt>
</trkseg>
</trk>
<trk>
<name>lwzmh40</name>
<cmt>v</cmt>
<desc>Moha Sentier n°40 </desc>
<link href="https://chemins.be/moha/sentier/40"/><trkseg>
<trkpt lat="50.548494" lon="5.191890"><time>2026-05-03T06:40:43Z</time></trkpt>
<trkpt lat="50.548115" lon="5.192137"><time>2026-05-03T06:50:43Z</time></trkpt>
<trkpt lat="50.547864" lon="5.192062"><time>2026-05-03T07:00:43Z</time></trkpt>
<trkpt lat="50.546547" lon="5.192228"><time>2026-05-03T07:10:43Z</time></trkpt>
<trkpt lat="50.545919" lon="5.192438"><time>2026-05-03T07:20:43Z</time></trkpt>
</trkseg></trk>
<trk>
<name>lwzmh40</name>
<cmt>q</cmt>
<desc>Moha Sentier n°40 </desc>
<link href="https://chemins.be/moha/sentier/40"/><trkseg>
<trkpt lat="50.545919" lon="5.192438"><time>2026-05-03T07:20:43Z</time></trkpt>
<trkpt lat="50.545216" lon="5.192707"><time>2026-05-03T07:30:43Z</time></trkpt>
</trkseg>
</trk>
<trk>
<name>lwzmh41</name>
<cmt>b</cmt>
<desc>Moha Sentier n°41 </desc>
<link href="https://chemins.be/moha/sentier/41"/><trkseg>
<trkpt lat="50.549714" lon="5.183430"><time>2026-05-03T06:40:43Z</time></trkpt>
<trkpt lat="50.549536" lon="5.183131"><time>2026-05-03T06:50:43Z</time></trkpt>
</trkseg></trk>
<trk>
<name>lwzmh41</name>
<cmt>d</cmt>
<desc>Moha Sentier n°41 </desc>
<link href="https://chemins.be/moha/sentier/41"/><trkseg>
<trkpt lat="50.549536" lon="5.183131"><time>2026-05-03T06:50:43Z</time></trkpt>
<trkpt lat="50.549043" lon="5.182911"><time>2026-05-03T07:00:43Z</time></trkpt>
<trkpt lat="50.548009" lon="5.182907"><time>2026-05-03T07:10:43Z</time></trkpt>
<trkpt lat="50.546750" lon="5.183012"><time>2026-05-03T07:20:43Z</time></trkpt>
</trkseg></trk>
<trk>
<name>lwzmh41</name>
<cmt>q</cmt>
<desc>Moha Sentier n°41 </desc>
<link href="https://chemins.be/moha/sentier/41"/><trkseg>
<trkpt lat="50.546750" lon="5.183012"><time>2026-05-03T07:20:43Z</time></trkpt>
<trkpt lat="50.546053" lon="5.183877"><time>2026-05-03T07:30:43Z</time></trkpt>
</trkseg>
</trk>
<trk>
<name>lwzmh42</name>
<cmt>v</cmt>
<desc>Moha Sentier n°42 </desc>
<link href="https://chemins.be/moha/sentier/42"/><trkseg>
<trkpt lat="50.552746" lon="5.197583"><time>2026-05-03T06:40:43Z</time></trkpt>
<trkpt lat="50.552910" lon="5.198063"><time>2026-05-03T06:50:43Z</time></trkpt>
<trkpt lat="50.552520" lon="5.198592"><time>2026-05-03T07:00:43Z</time></trkpt>
</trkseg>
</trk>
<trk>
<name>lwzmh43</name>
<cmt>q</cmt>
<desc>Moha Chemin n°43 </desc>
<link href="https://chemins.be/moha/chemin/43"/><trkseg>
<trkpt lat="50.552359" lon="5.195738"><time>2026-05-03T06:40:43Z</time></trkpt>
<trkpt lat="50.552236" lon="5.195760"><time>2026-05-03T06:50:43Z</time></trkpt>
<trkpt lat="50.552050" lon="5.195935"><time>2026-05-03T07:00:43Z</time></trkpt>
</trkseg>
</trk>
<trk>
<name>lwzmh46</name>
<cmt>q</cmt>
<desc>Moha Sentier n°46 </desc>
<link href="https://chemins.be/moha/sentier/46"/><trkseg>
<trkpt lat="50.555095" lon="5.187984"><time>2026-05-03T06:40:43Z</time></trkpt>
<trkpt lat="50.556145" lon="5.190709"><time>2026-05-03T06:50:43Z</time></trkpt>
</trkseg></trk>
<trk>
<name>lwzmh46</name>
<cmt>v</cmt>
<desc>Moha Sentier n°46 </desc>
<link href="https://chemins.be/moha/sentier/46"/><trkseg>
<trkpt lat="50.556145" lon="5.190709"><time>2026-05-03T06:50:43Z</time></trkpt>
<trkpt lat="50.557533" lon="5.192753"><time>2026-05-03T07:00:43Z</time></trkpt>
</trkseg>
</trk>
<trk>
<name>lwzmh47</name>
<cmt>v</cmt>
<desc>Moha Sentier n°47 Rue des Communes</desc>
<link href="https://chemins.be/moha/sentier/47"/><trkseg>
<trkpt lat="50.551604" lon="5.183761"><time>2026-05-03T06:40:43Z</time></trkpt>
<trkpt lat="50.551787" lon="5.184249"><time>2026-05-03T06:50:43Z</time></trkpt>
<trkpt lat="50.551858" lon="5.184287"><time>2026-05-03T07:00:43Z</time></trkpt>
</trkseg></trk>
<trk>
<name>lwzmh47</name>
<cmt>q</cmt>
<desc>Moha Sentier n°47 Rue des Communes</desc>
<link href="https://chemins.be/moha/sentier/47"/><trkseg>
<trkpt lat="50.551858" lon="5.184287"><time>2026-05-03T07:00:43Z</time></trkpt>
<trkpt lat="50.552125" lon="5.184498"><time>2026-05-03T07:10:43Z</time></trkpt>
<trkpt lat="50.552419" lon="5.184326"><time>2026-05-03T07:20:43Z</time></trkpt>
<trkpt lat="50.555441" lon="5.184798"><time>2026-05-03T07:30:43Z</time></trkpt>
<trkpt lat="50.556269" lon="5.185862"><time>2026-05-03T07:40:43Z</time></trkpt>
</trkseg>
</trk>
<trk>
<name>lwzmh48</name>
<cmt>q</cmt>
<desc>Moha Sentier n°48 </desc>
<link href="https://chemins.be/moha/sentier/48"/><trkseg>
<trkpt lat="50.557474" lon="5.181657"><time>2026-05-03T06:40:43Z</time></trkpt>
<trkpt lat="50.559548" lon="5.181011"><time>2026-05-03T06:50:43Z</time></trkpt>
<trkpt lat="50.560562" lon="5.179037"><time>2026-05-03T07:00:43Z</time></trkpt>
</trkseg>
</trk>
<trk>
<name>lwzmh48bis</name>
<cmt>q</cmt>
<desc>Moha Sentier n°48bis </desc>
<link href="https://chemins.be/moha/sentier/48bis"/><trkseg>
<trkpt lat="50.556930" lon="5.184976"><time>2026-05-03T06:40:43Z</time></trkpt>
<trkpt lat="50.557910" lon="5.184068"><time>2026-05-03T06:50:43Z</time></trkpt>
</trkseg></trk>
<trk>
<name>lwzmh48bis</name>
<cmt>s</cmt>
<desc>Moha Sentier n°48bis </desc>
<link href="https://chemins.be/moha/sentier/48bis"/><trkseg>
<trkpt lat="50.557910" lon="5.184068"><time>2026-05-03T06:50:43Z</time></trkpt>
<trkpt lat="50.558948" lon="5.183105"><time>2026-05-03T07:00:43Z</time></trkpt>
<trkpt lat="50.559526" lon="5.180994"><time>2026-05-03T07:10:43Z</time></trkpt>
</trkseg>
</trk>
<trk>
<name>lwzmh49</name>
<cmt>q</cmt>
<desc>Moha Sentier n°49 </desc>
<link href="https://chemins.be/moha/sentier/49"/><trkseg>
<trkpt lat="50.551828" lon="5.183386"><time>2026-05-03T06:40:43Z</time></trkpt>
<trkpt lat="50.553485" lon="5.181995"><time>2026-05-03T06:50:43Z</time></trkpt>
<trkpt lat="50.553933" lon="5.181172"><time>2026-05-03T07:00:43Z</time></trkpt>
</trkseg></trk>
<trk>
<name>lwzmh49</name>
<cmt>s</cmt>
<desc>Moha Sentier n°49 </desc>
<link href="https://chemins.be/moha/sentier/49"/><trkseg>
<trkpt lat="50.553933" lon="5.181172"><time>2026-05-03T07:00:43Z</time></trkpt>
<trkpt lat="50.554562" lon="5.179688"><time>2026-05-03T07:10:43Z</time></trkpt>
<trkpt lat="50.554816" lon="5.179212"><time>2026-05-03T07:20:43Z</time></trkpt>
<trkpt lat="50.555178" lon="5.178733"><time>2026-05-03T07:30:43Z</time></trkpt>
<trkpt lat="50.556253" lon="5.179149"><time>2026-05-03T07:40:43Z</time></trkpt>
<trkpt lat="50.557370" lon="5.176473"><time>2026-05-03T07:50:43Z</time></trkpt>
</trkseg></trk>
<trk>
<name>lwzmh49</name>
<cmt>q</cmt>
<desc>Moha Sentier n°49 </desc>
<link href="https://chemins.be/moha/sentier/49"/><trkseg>
<trkpt lat="50.557370" lon="5.176473"><time>2026-05-03T07:50:43Z</time></trkpt>
<trkpt lat="50.557308" lon="5.174442"><time>2026-05-03T08:00:43Z</time></trkpt>
<trkpt lat="50.557744" lon="5.173856"><time>2026-05-03T08:10:43Z</time></trkpt>
<trkpt lat="50.558488" lon="5.176039"><time>2026-05-03T08:20:43Z</time></trkpt>
<trkpt lat="50.559120" lon="5.176926"><time>2026-05-03T08:30:43Z</time></trkpt>
<trkpt lat="50.559942" lon="5.176941"><time>2026-05-03T08:40:43Z</time></trkpt>
</trkseg>
</trk>
<trk>
<name>lwzmh5</name>
<cmt>q</cmt>
<desc>Moha Chemin n°5 </desc>
<link href="https://chemins.be/moha/chemin/5"/><trkseg>
<trkpt lat="50.551703" lon="5.183515"><time>2026-05-03T06:40:43Z</time></trkpt>
<trkpt lat="50.551540" lon="5.183232"><time>2026-05-03T06:50:43Z</time></trkpt>
<trkpt lat="50.551247" lon="5.183010"><time>2026-05-03T07:00:43Z</time></trkpt>
</trkseg>
</trk>
<trk>
<name>lwzmh50</name>
<cmt>v</cmt>
<desc>Moha Sentier n°50 Passage dans le pré</desc>
<link href="https://chemins.be/moha/sentier/50"/><trkseg>
<trkpt lat="50.552048" lon="5.190343"><time>2026-05-03T06:40:43Z</time></trkpt>
<trkpt lat="50.552353" lon="5.189929"><time>2026-05-03T06:50:43Z</time></trkpt>
<trkpt lat="50.552512" lon="5.188770"><time>2026-05-03T07:00:43Z</time></trkpt>
<trkpt lat="50.552208" lon="5.188003"><time>2026-05-03T07:10:43Z</time></trkpt>
<trkpt lat="50.552401" lon="5.187371"><time>2026-05-03T07:20:43Z</time></trkpt>
<trkpt lat="50.552268" lon="5.187129"><time>2026-05-03T07:30:43Z</time></trkpt>
</trkseg>
</trk>
<trk>
<name>lwzmh51</name>
<cmt>r</cmt>
<desc>Moha Sentier n°51 Rue Xhavée</desc>
<link href="https://chemins.be/moha/sentier/51"/><trkseg>
<trkpt lat="50.550967" lon="5.189651"><time>2026-05-03T06:40:43Z</time></trkpt>
<trkpt lat="50.551486" lon="5.190083"><time>2026-05-03T06:50:43Z</time></trkpt>
<trkpt lat="50.551885" lon="5.190273"><time>2026-05-03T07:00:43Z</time></trkpt>
<trkpt lat="50.552034" lon="5.190364"><time>2026-05-03T07:10:43Z</time></trkpt>
</trkseg></trk>
<trk>
<name>lwzmh51</name>
<cmt>v</cmt>
<desc>Moha Sentier n°51 Rue Xhavée</desc>
<link href="https://chemins.be/moha/sentier/51"/><trkseg>
<trkpt lat="50.552034" lon="5.190364"><time>2026-05-03T07:10:43Z</time></trkpt>
<trkpt lat="50.552230" lon="5.190732"><time>2026-05-03T07:20:43Z</time></trkpt>
<trkpt lat="50.552980" lon="5.191125"><time>2026-05-03T07:30:43Z</time></trkpt>
</trkseg>
</trk>
<trk>
<name>lwzmh52</name>
<cmt>q</cmt>
<desc>Moha Sentier n°52 </desc>
<link href="https://chemins.be/moha/sentier/52"/><trkseg>
<trkpt lat="50.545509" lon="5.165847"><time>2026-05-03T06:40:43Z</time></trkpt>
<trkpt lat="50.545368" lon="5.163478"><time>2026-05-03T06:50:43Z</time></trkpt>
<trkpt lat="50.545106" lon="5.162079"><time>2026-05-03T07:00:43Z</time></trkpt>
</trkseg>
</trk>
<trk>
<name>lwzmh53</name>
<cmt>q</cmt>
<desc>Moha Sentier n°53 </desc>
<link href="https://chemins.be/moha/sentier/53"/><trkseg>
<trkpt lat="50.553423" lon="5.186626"><time>2026-05-03T06:40:43Z</time></trkpt>
<trkpt lat="50.552490" lon="5.184360"><time>2026-05-03T06:50:43Z</time></trkpt>
</trkseg>
</trk>
<trk>
<name>lwzmh55</name>
<cmt>v</cmt>
<desc>Moha Sentier n°55 Rue des Bruyères</desc>
<link href="https://chemins.be/moha/sentier/55"/><trkseg>
<trkpt lat="50.551948" lon="5.192952"><time>2026-05-03T06:40:43Z</time></trkpt>
<trkpt lat="50.551765" lon="5.192144"><time>2026-05-03T06:50:43Z</time></trkpt>
</trkseg>
</trk>
<trk>
<name>lwzmh56</name>
<cmt>v</cmt>
<desc>Moha Chemin n°56 </desc>
<link href="https://chemins.be/moha/chemin/56"/><trkseg>
<trkpt lat="50.540568" lon="5.164212"><time>2026-05-03T06:40:43Z</time></trkpt>
<trkpt lat="50.540026" lon="5.164641"><time>2026-05-03T06:50:43Z</time></trkpt>
<trkpt lat="50.539479" lon="5.165746"><time>2026-05-03T07:00:43Z</time></trkpt>
<trkpt lat="50.538801" lon="5.167568"><time>2026-05-03T07:10:43Z</time></trkpt>
</trkseg></trk>
<trk>
<name>lwzmh56</name>
<cmt>d</cmt>
<desc>Moha Chemin n°56 </desc>
<link href="https://chemins.be/moha/chemin/56"/><trkseg>
<trkpt lat="50.538801" lon="5.167568"><time>2026-05-03T07:10:43Z</time></trkpt>
<trkpt lat="50.536850" lon="5.171443"><time>2026-05-03T07:20:43Z</time></trkpt>
</trkseg>
</trk>
<trk>
<name>lwzmh6</name>
<cmt>s</cmt>
<desc>Moha Chemin n°6 Rue Saint Joseph / Rue Raide Vallée</desc>
<link href="https://chemins.be/moha/chemin/6"/><trkseg>
<trkpt lat="50.540668" lon="5.186505"><time>2026-05-03T06:40:43Z</time></trkpt>
<trkpt lat="50.541860" lon="5.180242"><time>2026-05-03T06:50:43Z</time></trkpt>
<trkpt lat="50.541749" lon="5.178192"><time>2026-05-03T07:00:43Z</time></trkpt>
</trkseg></trk>
<trk>
<name>lwzmh6</name>
<cmt>r</cmt>
<desc>Moha Chemin n°6 Rue Saint Joseph / Rue Raide Vallée</desc>
<link href="https://chemins.be/moha/chemin/6"/><trkseg>
<trkpt lat="50.541749" lon="5.178192"><time>2026-05-03T07:00:43Z</time></trkpt>
<trkpt lat="50.543608" lon="5.173948"><time>2026-05-03T07:10:43Z</time></trkpt>
<trkpt lat="50.544406" lon="5.170229"><time>2026-05-03T07:20:43Z</time></trkpt>
<trkpt lat="50.545418" lon="5.168865"><time>2026-05-03T07:30:43Z</time></trkpt>
<trkpt lat="50.545226" lon="5.168269"><time>2026-05-03T07:40:43Z</time></trkpt>
<trkpt lat="50.545464" lon="5.166171"><time>2026-05-03T07:50:43Z</time></trkpt>
<trkpt lat="50.546025" lon="5.164646"><time>2026-05-03T08:00:43Z</time></trkpt>
</trkseg></trk>
<trk>
<name>lwzmh6</name>
<cmt>q</cmt>
<desc>Moha Chemin n°6 Rue Saint Joseph / Rue Raide Vallée</desc>
<link href="https://chemins.be/moha/chemin/6"/><trkseg>
<trkpt lat="50.546025" lon="5.164646"><time>2026-05-03T08:00:43Z</time></trkpt>
<trkpt lat="50.547452" lon="5.161972"><time>2026-05-03T08:10:43Z</time></trkpt>
</trkseg>
</trk>
<trk>
<name>lwzmh65</name>
<cmt>v</cmt>
<desc>Moha Sentier n°65 </desc>
<link href="https://chemins.be/moha/sentier/65"/><trkseg>
<trkpt lat="50.554511" lon="5.195466"><time>2026-05-03T06:40:43Z</time></trkpt>
<trkpt lat="50.554716" lon="5.195724"><time>2026-05-03T06:50:43Z</time></trkpt>
<trkpt lat="50.554758" lon="5.196106"><time>2026-05-03T07:00:43Z</time></trkpt>
<trkpt lat="50.554795" lon="5.197221"><time>2026-05-03T07:10:43Z</time></trkpt>
<trkpt lat="50.554817" lon="5.197857"><time>2026-05-03T07:20:43Z</time></trkpt>
</trkseg>
</trk>
<trk>
<name>lwzmh7</name>
<cmt>r</cmt>
<desc>Moha Chemin n°7 </desc>
<link href="https://chemins.be/moha/chemin/7"/><trkseg>
<trkpt lat="50.544891" lon="5.185252"><time>2026-05-03T06:40:43Z</time></trkpt>
<trkpt lat="50.544129" lon="5.186255"><time>2026-05-03T06:50:43Z</time></trkpt>
</trkseg></trk>
<trk>
<name>lwzmh7</name>
<cmt>v</cmt>
<desc>Moha Chemin n°7 </desc>
<link href="https://chemins.be/moha/chemin/7"/><trkseg>
<trkpt lat="50.544129" lon="5.186255"><time>2026-05-03T06:50:43Z</time></trkpt>
<trkpt lat="50.543167" lon="5.187423"><time>2026-05-03T07:00:43Z</time></trkpt>
</trkseg></trk>
<trk>
<name>lwzmh7</name>
<cmt>q</cmt>
<desc>Moha Chemin n°7 </desc>
<link href="https://chemins.be/moha/chemin/7"/><trkseg>
<trkpt lat="50.543167" lon="5.187423"><time>2026-05-03T07:00:43Z</time></trkpt>
<trkpt lat="50.539636" lon="5.192286"><time>2026-05-03T07:10:43Z</time></trkpt>
</trkseg>
</trk>
<trk>
<name>lwzmh8</name>
<cmt>s</cmt>
<desc>Moha Chemin n°8 </desc>
<link href="https://chemins.be/moha/chemin/8"/><trkseg>
<trkpt lat="50.543943" lon="5.183869"><time>2026-05-03T06:40:43Z</time></trkpt>
<trkpt lat="50.543686" lon="5.183869"><time>2026-05-03T06:50:43Z</time></trkpt>
<trkpt lat="50.542620" lon="5.184433"><time>2026-05-03T07:00:43Z</time></trkpt>
<trkpt lat="50.541321" lon="5.186016"><time>2026-05-03T07:10:43Z</time></trkpt>
<trkpt lat="50.540762" lon="5.186473"><time>2026-05-03T07:20:43Z</time></trkpt>
</trkseg>
</trk>
<trk>
<name>lwzmh9</name>
<cmt>s</cmt>
<desc>Moha Chemin n°9 Rue Nerva</desc>
<link href="https://chemins.be/moha/chemin/9"/><trkseg>
<trkpt lat="50.541827" lon="5.180197"><time>2026-05-03T06:40:43Z</time></trkpt>
<trkpt lat="50.542893" lon="5.185943"><time>2026-05-03T06:50:43Z</time></trkpt>
</trkseg></trk>
<trk>
<name>lwzmh9</name>
<cmt>r</cmt>
<desc>Moha Chemin n°9 Rue Nerva</desc>
<link href="https://chemins.be/moha/chemin/9"/><trkseg>
<trkpt lat="50.542893" lon="5.185943"><time>2026-05-03T06:50:43Z</time></trkpt>
<trkpt lat="50.543123" lon="5.187697"><time>2026-05-03T07:00:43Z</time></trkpt>
<trkpt lat="50.543554" lon="5.189075"><time>2026-05-03T07:10:43Z</time></trkpt>
<trkpt lat="50.545042" lon="5.190272"><time>2026-05-03T07:20:43Z</time></trkpt>
<trkpt lat="50.545719" lon="5.191464"><time>2026-05-03T07:30:43Z</time></trkpt>
</trkseg></trk>
<trk>
<name>lwzmh9</name>
<cmt>v</cmt>
<desc>Moha Chemin n°9 Rue Nerva</desc>
<link href="https://chemins.be/moha/chemin/9"/><trkseg>
<trkpt lat="50.545719" lon="5.191464"><time>2026-05-03T07:30:43Z</time></trkpt>
<trkpt lat="50.545875" lon="5.192338"><time>2026-05-03T07:40:43Z</time></trkpt>
</trkseg></trk>
<trk>
<name>lwzmh9</name>
<cmt>b</cmt>
<desc>Moha Chemin n°9 Rue Nerva</desc>
<link href="https://chemins.be/moha/chemin/9"/><trkseg>
<trkpt lat="50.545875" lon="5.192338"><time>2026-05-03T07:40:43Z</time></trkpt>
<trkpt lat="50.547093" lon="5.199386"><time>2026-05-03T07:50:43Z</time></trkpt>
</trkseg>
</trk>
<trk>
<name>lwzmhi1</name>
<cmt>v</cmt>
<desc>Moha Chemin n°i1 </desc>
<link href="https://chemins.be/moha/chemin/i1"/><trkseg>
<trkpt lat="50.549708" lon="5.163407"><time>2026-05-03T06:40:43Z</time></trkpt>
<trkpt lat="50.550016" lon="5.164385"><time>2026-05-03T06:50:43Z</time></trkpt>
<trkpt lat="50.550953" lon="5.164190"><time>2026-05-03T07:00:43Z</time></trkpt>
</trkseg>
</trk>
<trk>
<name>lwzmhi10</name>
<cmt>v</cmt>
<desc>Moha Sentier n°i10 Rue du Madot</desc>
<link href="https://chemins.be/moha/sentier/i10"/><trkseg>
<trkpt lat="50.552907" lon="5.179308"><time>2026-05-03T06:40:43Z</time></trkpt>
<trkpt lat="50.553132" lon="5.179354"><time>2026-05-03T06:50:43Z</time></trkpt>
<trkpt lat="50.553103" lon="5.179523"><time>2026-05-03T07:00:43Z</time></trkpt>
<trkpt lat="50.553211" lon="5.179539"><time>2026-05-03T07:10:43Z</time></trkpt>
<trkpt lat="50.553362" lon="5.179782"><time>2026-05-03T07:20:43Z</time></trkpt>
<trkpt lat="50.553451" lon="5.180023"><time>2026-05-03T07:30:43Z</time></trkpt>
<trkpt lat="50.553412" lon="5.180403"><time>2026-05-03T07:40:43Z</time></trkpt>
<trkpt lat="50.553076" lon="5.180849"><time>2026-05-03T07:50:43Z</time></trkpt>
<trkpt lat="50.552775" lon="5.181479"><time>2026-05-03T08:00:43Z</time></trkpt>
</trkseg>
</trk>
<trk>
<name>lwzmhi2</name>
<cmt>v</cmt>
<desc>Moha Chemin n°i2 </desc>
<link href="https://chemins.be/moha/chemin/i2"/><trkseg>
<trkpt lat="50.549235" lon="5.169493"><time>2026-05-03T06:40:43Z</time></trkpt>
<trkpt lat="50.549468" lon="5.169592"><time>2026-05-03T06:50:43Z</time></trkpt>
<trkpt lat="50.549766" lon="5.170675"><time>2026-05-03T07:00:43Z</time></trkpt>
<trkpt lat="50.550800" lon="5.170692"><time>2026-05-03T07:10:43Z</time></trkpt>
<trkpt lat="50.551648" lon="5.170707"><time>2026-05-03T07:20:43Z</time></trkpt>
</trkseg>
</trk>
<trk>
<name>lwzmhi3</name>
<cmt>s</cmt>
<desc>Moha Chemin n°i3 </desc>
<link href="https://chemins.be/moha/chemin/i3"/><trkseg>
<trkpt lat="50.548448" lon="5.192058"><time>2026-05-03T06:40:43Z</time></trkpt>
<trkpt lat="50.548610" lon="5.193317"><time>2026-05-03T06:50:43Z</time></trkpt>
<trkpt lat="50.548969" lon="5.194734"><time>2026-05-03T07:00:43Z</time></trkpt>
<trkpt lat="50.547939" lon="5.195351"><time>2026-05-03T07:10:43Z</time></trkpt>
<trkpt lat="50.547758" lon="5.195588"><time>2026-05-03T07:20:43Z</time></trkpt>
<trkpt lat="50.547824" lon="5.196478"><time>2026-05-03T07:30:43Z</time></trkpt>
</trkseg>
</trk>
<trk>
<name>lwzmhi4</name>
<cmt>v</cmt>
<desc>Moha Sentier n°i4 </desc>
<link href="https://chemins.be/moha/sentier/i4"/><trkseg>
<trkpt lat="50.549528" lon="5.191922"><time>2026-05-03T06:40:43Z</time></trkpt>
<trkpt lat="50.549640" lon="5.191359"><time>2026-05-03T06:50:43Z</time></trkpt>
<trkpt lat="50.549730" lon="5.191304"><time>2026-05-03T07:00:43Z</time></trkpt>
</trkseg>
</trk>
<trk>
<name>lwzmhi5</name>
<cmt>v</cmt>
<desc>Moha Chemin n°i5 Chemin de Lamalle à Moha</desc>
<link href="https://chemins.be/moha/chemin/i5"/><trkseg>
<trkpt lat="50.557560" lon="5.192775"><time>2026-05-03T06:40:43Z</time></trkpt>
<trkpt lat="50.557226" lon="5.189878"><time>2026-05-03T06:50:43Z</time></trkpt>
<trkpt lat="50.557042" lon="5.187367"><time>2026-05-03T07:00:43Z</time></trkpt>
<trkpt lat="50.557319" lon="5.186928"><time>2026-05-03T07:10:43Z</time></trkpt>
<trkpt lat="50.557839" lon="5.186197"><time>2026-05-03T07:20:43Z</time></trkpt>
</trkseg>
</trk>
<trk>
<name>lwzmhi6</name>
<cmt>v</cmt>
<desc>Moha Chemin n°i6 </desc>
<link href="https://chemins.be/moha/chemin/i6"/><trkseg>
<trkpt lat="50.546112" lon="5.164729"><time>2026-05-03T06:40:43Z</time></trkpt>
<trkpt lat="50.546793" lon="5.166434"><time>2026-05-03T06:50:43Z</time></trkpt>
<trkpt lat="50.547837" lon="5.168808"><time>2026-05-03T07:00:43Z</time></trkpt>
<trkpt lat="50.548307" lon="5.169761"><time>2026-05-03T07:10:43Z</time></trkpt>
</trkseg>
</trk>
<trk>
<name>lwzmhi7</name>
<cmt>v</cmt>
<desc>Moha Sentier n°i7 Chemin de Bas-Oha au Rivage</desc>
<link href="https://chemins.be/moha/sentier/i7"/><trkseg>
<trkpt lat="50.548799" lon="5.169551"><time>2026-05-03T06:40:43Z</time></trkpt>
<trkpt lat="50.548777" lon="5.169440"><time>2026-05-03T06:50:43Z</time></trkpt>
<trkpt lat="50.549031" lon="5.169198"><time>2026-05-03T07:00:43Z</time></trkpt>
<trkpt lat="50.549076" lon="5.168991"><time>2026-05-03T07:10:43Z</time></trkpt>
</trkseg>
</trk>
<trk>
<name>lwzmhi8</name>
<cmt>v</cmt>
<desc>Moha Chemin n°i8 </desc>
<link href="https://chemins.be/moha/chemin/i8"/><trkseg>
<trkpt lat="50.557038" lon="5.176873"><time>2026-05-03T06:40:43Z</time></trkpt>
<trkpt lat="50.557378" lon="5.176398"><time>2026-05-03T06:50:43Z</time></trkpt>
<trkpt lat="50.558441" lon="5.175954"><time>2026-05-03T07:00:43Z</time></trkpt>
<trkpt lat="50.559025" lon="5.176069"><time>2026-05-03T07:10:43Z</time></trkpt>
</trkseg>
</trk>
<trk>
<name>lwzmhL127</name>
<cmt>d</cmt>
<desc>Moha Chemin n°L127 Rue du Val Notre Dame</desc>
<link href="https://chemins.be/moha/chemin/L127"/><trkseg>
<trkpt lat="50.551205" lon="5.200065"><time>2026-05-03T06:40:43Z</time></trkpt>
<trkpt lat="50.550075" lon="5.197167"><time>2026-05-03T06:50:43Z</time></trkpt>
<trkpt lat="50.549050" lon="5.194679"><time>2026-05-03T07:00:43Z</time></trkpt>
<trkpt lat="50.548717" lon="5.193460"><time>2026-05-03T07:10:43Z</time></trkpt>
<trkpt lat="50.548603" lon="5.191779"><time>2026-05-03T07:20:43Z</time></trkpt>
</trkseg></trk>
<trk>
<name>lwzmhL127</name>
<cmt>t</cmt>
<desc>Moha Chemin n°L127 Rue du Val Notre Dame</desc>
<link href="https://chemins.be/moha/chemin/L127"/><trkseg>
<trkpt lat="50.548603" lon="5.191779"><time>2026-05-03T07:20:43Z</time></trkpt>
<trkpt lat="50.549549" lon="5.189015"><time>2026-05-03T07:30:43Z</time></trkpt>
<trkpt lat="50.551201" lon="5.184119"><time>2026-05-03T07:40:43Z</time></trkpt>
<trkpt lat="50.552515" lon="5.182702"><time>2026-05-03T07:50:43Z</time></trkpt>
<trkpt lat="50.553982" lon="5.181161"><time>2026-05-03T08:00:43Z</time></trkpt>
<trkpt lat="50.555090" lon="5.179529"><time>2026-05-03T08:10:43Z</time></trkpt>
<trkpt lat="50.555923" lon="5.178739"><time>2026-05-03T08:20:43Z</time></trkpt>
<trkpt lat="50.557542" lon="5.177369"><time>2026-05-03T08:30:43Z</time></trkpt>
<trkpt lat="50.559903" lon="5.176591"><time>2026-05-03T08:40:43Z</time></trkpt>
</trkseg>
</trk>
<trk>
<name>lwzmhLv722</name>
<cmt>q</cmt>
<desc>Moha Chemin n°Lv722 Chaussée de Wavre</desc>
<link href="https://chemins.be/moha/chemin/Lv722"/><trkseg>
<trkpt lat="50.537370" lon="5.178139"><time>2026-05-03T06:40:43Z</time></trkpt>
<trkpt lat="50.537595" lon="5.176845"><time>2026-05-03T06:50:43Z</time></trkpt>
<trkpt lat="50.538854" lon="5.174172"><time>2026-05-03T07:00:43Z</time></trkpt>
</trkseg></trk>
<trk>
<name>lwzmhLv722</name>
<cmt>s</cmt>
<desc>Moha Chemin n°Lv722 Chaussée de Wavre</desc>
<link href="https://chemins.be/moha/chemin/Lv722"/><trkseg>
<trkpt lat="50.538854" lon="5.174172"><time>2026-05-03T07:00:43Z</time></trkpt>
<trkpt lat="50.540480" lon="5.170503"><time>2026-05-03T07:10:43Z</time></trkpt>
<trkpt lat="50.540626" lon="5.167656"><time>2026-05-03T07:20:43Z</time></trkpt>
<trkpt lat="50.540530" lon="5.164593"><time>2026-05-03T07:30:43Z</time></trkpt>
</trkseg>
</trk>
<trk>
<name>lwzmhp1</name>
<cmt>q</cmt>
<desc>Moha Chemin particulier n°p1 </desc>
<link href="https://chemins.be/moha/chemin/p1"/><trkseg>
<trkpt lat="50.548035" lon="5.187132"><time>2026-05-03T06:40:43Z</time></trkpt>
<trkpt lat="50.548536" lon="5.187282"><time>2026-05-03T06:50:43Z</time></trkpt>
</trkseg>
</trk>
<trk>
<name>lwzmhp2</name>
<cmt>q</cmt>
<desc>Moha Chemin particulier n°p2 </desc>
<link href="https://chemins.be/moha/chemin/p2"/><trkseg>
<trkpt lat="50.548134" lon="5.198863"><time>2026-05-03T06:40:43Z</time></trkpt>
<trkpt lat="50.547834" lon="5.196460"><time>2026-05-03T06:50:43Z</time></trkpt>
</trkseg>
</trk>
</gpx>